Russian Mission Airport

About
Name: Russian Mission Airport
Identifier:  RSH/PARS
Serves:  Russian Mission, Alaska
Owner:  Alaska DOT&PF - Northern Region
Public/Private:  Public
Local Time:  18. Aug 10:15 AKDT
Description: Russian Mission Airport is a state-owned public-use airport located in Russian Mission, a city in the Kusilvak Census Area of the U.S. state of Alaska.
Source: Wikipedia
Location
Russian Mission
  United States

Runways
Identifier Length (m/ft) Surface
17/35 3,600/3,600 Gravel
18W/36W 3,000/3,000 Water
Flights per Day
6 flights
Distance: 71km (44mi)
Punctuality
89% (0 flights per day delayed)
Delay Average: 111 minutes
Current Weather
 12 C (Humidity: 62%)
  0kt from variable
  16km (10 mi.)
 
 METAR PARS 181756Z AUTO VRB04KT 10SM CLR 12/05 A3039 RMK AO2 SLP295 T01170050 10117 20100 56004 $

Current Flights

Departures
Number Departure To Airline
Arrivals
Number Arrival From Airline

Current Delays

Departures
N/A
Arrivals
N/A

Destinations

Top Destinations
Airport Flights
per week
Seats
per week
  Anchorage (ANC) 0 - 0 0

Airlines & Planes

Top Airlines
Airline Flights
per Day
Seats
per Day
SkyBus International Airlines 0 -
Top Plane Types
Model Flights Seats
Pilatus PC-12 0.0/day - 0